Eastern Asia — 3FQP2 — position and weather

sailwx.info

Track history (hours):
 
Tides and Currents Weather Stations Pressure Air Temp Water Temp Dewpoint Dewpoint Depression Visibility Wind Speed Wind Dir Waves Ship Positions

Eastern Asia

Last reported at 2014-Sep-17 01:25 UTC. Time now 2014-Sep-18 23:45 UTC.
Position N 46°13' W 124°17'.

Length 175 m; draft 10.2 m.

Type: Cargo ship. MMSI: 355530000.

Date/timePositionNaut miles runAvg speedWind from/ knotsBaromVisibWave heightAir tempDewpointWater temp
2014-Sep-17 01:25N 46°13' W 124°17'1011.4
2014-Sep-17 00:33N 46°15' W 124°03'10 9.7
2014-Sep-16 23:34N 46°12' W 123°50'1110.5
2014-Sep-16 22:33N 46°15' W 123°36'  
2014-Sep-14 03:15N 46°14' W 123°26'811.2
2014-Sep-14 02:34N 46°15' W 123°37'1110.5
2014-Sep-14 01:34N 46°12' W 123°51'13511.1
2014-Sep-13 13:20N 48°14' W 125°16'1012.8
2014-Sep-13 12:31N 48°23' W 125°09'1010.7
2014-Sep-13 11:34N 48°31' W 124°58'1312.5
2014-Sep-13 10:34N 48°29' W 124°40'1313.2
2014-Sep-13 09:33N 48°24' W 124°21'1413.7
2014-Sep-13 08:33N 48°19' W 124°02'1615.6
2014-Sep-13 07:32N 48°16' W 123°39'1212.5
2014-Sep-13 06:33N 48°23' W 123°24'1110.7
2014-Sep-13 05:33N 48°30' W 123°13'1313.2
2014-Sep-13 04:33N 48°44' W 123°10'9 9.4
2014-Sep-13 03:33N 48°53' W 123°07'1514.7
2014-Sep-13 02:33N 49°02' W 123°24'1414.1
2014-Sep-13 01:33N 49°11' W 123°41'7 6.8
2014-Sep-13 00:33N 49°09' W 123°51'0 0.1
2014-Sep-12 22:09N 49°08' W 123°51'0 0.0
2014-Sep-12 20:24N 49°08' W 123°51'0 0.0
2014-Sep-12 17:24N 49°08' W 123°51'0 0.0
2014-Sep-12 16:15N 49°08' W 123°51'0 0.0
2014-Sep-12 13:33N 49°08' W 123°51'0 0.0
2014-Sep-12 12:33N 49°08' W 123°51'0 0.0
2014-Sep-12 11:27N 49°08' W 123°51'0 0.0
2014-Sep-12 09:33N 49°08' W 123°51'0 0.0
2014-Sep-12 08:27N 49°08' W 123°51'0 0.0
2014-Sep-12 07:33N 49°08' W 123°51'0 0.0
2014-Sep-12 06:33N 49°08' W 123°51'0 0.0
2014-Sep-12 05:27N 49°08' W 123°51'0 0.0
2014-Sep-12 04:27N 49°08' W 123°51'0 0.0
2014-Sep-11 13:27N 49°08' W 123°51'0 0.0
2014-Sep-11 12:33N 49°08' W 123°51'0 0.0
2014-Sep-11 11:33N 49°08' W 123°51'0 0.0
2014-Sep-11 10:18N 49°08' W 123°51'0 0.0
2014-Sep-11 09:27N 49°08' W 123°51'0 0.0
2014-Sep-11 06:33N 49°08' W 123°51'0 0.0
2014-Sep-11 03:21N 49°08' W 123°51'0 0.0
2014-Sep-11 02:33N 49°08' W 123°51'0 0.0
2014-Sep-11 01:27N 49°08' W 123°51'0 0.0
2014-Sep-10 15:15N 49°08' W 123°51'0 0.0
2014-Sep-10 14:27N 49°08' W 123°51'0 0.0
2014-Sep-10 13:33N 49°08' W 123°51'0 0.0
2014-Sep-10 12:27N 49°08' W 123°51'0 0.0
2014-Sep-10 01:27N 49°08' W 123°51'0 0.0
2014-Sep-09 11:33N 49°08' W 123°51'0 0.0
2014-Sep-09 10:09N 49°08' W 123°51'0 0.0
2014-Sep-09 08:15N 49°08' W 123°51'0 0.7
2014-Sep-09 07:33N 49°09' W 123°51'6 6.2
2014-Sep-09 06:33N 49°13' W 123°45'1413.9
2014-Sep-09 05:33N 49°06' W 123°26'1414.0
2014-Sep-09 04:33N 48°57' W 123°10'1212.3
2014-Sep-09 03:33N 48°47' W 123°00'1211.9
2014-Sep-09 02:33N 48°40' W 123°15'1414.2
2014-Sep-09 01:34N 48°26' W 123°10'1010.4
2014-Sep-09 00:33N 48°20' W 123°24'7 7.5
2014-Sep-08 23:33N 48°14' W 123°30'1413.8
2014-Sep-08 22:32N 48°13' W 123°51'1414.5
2014-Sep-08 21:33N 48°18' W 124°11'1514.5
2014-Sep-08 20:33N 48°25' W 124°31'1414.1
2014-Sep-08 19:33N 48°29' W 124°52'1413.7
2014-Sep-08 18:33N 48°29' W 125°12'1312.9
2014-Sep-08 17:33N 48°28' W 125°32'1312.8
2014-Sep-08 16:32N 48°27' W 125°52'1313.4
2014-Sep-08 15:33N 48°29' W 126°11'  
Track history (hours):
 
Tides and Currents Weather Stations Pressure Air Temp Water Temp Dewpoint Dewpoint Depression Visibility Wind Speed Wind Dir Waves Ship Positions

Eastern Asia

Last reported at 2014-Sep-17 01:25 UTC. Time now 2014-Sep-18 23:45 UTC.
Position N 46°13' W 124°17'.

Length 175 m; draft 10.2 m.

Type: Cargo ship. MMSI: 355530000.

Date/timePositionNaut miles runAvg speedWind from/ knotsBaromVisibWave heightAir tempDewpointWater temp
2014-Sep-17 01:25N 46°13' W 124°17'1011.4
2014-Sep-17 00:33N 46°15' W 124°03'10 9.7
2014-Sep-16 23:34N 46°12' W 123°50'1110.5
2014-Sep-16 22:33N 46°15' W 123°36'  
2014-Sep-14 03:15N 46°14' W 123°26'811.2
2014-Sep-14 02:34N 46°15' W 123°37'1110.5
2014-Sep-14 01:34N 46°12' W 123°51'13511.1
2014-Sep-13 13:20N 48°14' W 125°16'1012.8
2014-Sep-13 12:31N 48°23' W 125°09'1010.7
2014-Sep-13 11:34N 48°31' W 124°58'1312.5
2014-Sep-13 10:34N 48°29' W 124°40'1313.2
2014-Sep-13 09:33N 48°24' W 124°21'1413.7
2014-Sep-13 08:33N 48°19' W 124°02'1615.6
2014-Sep-13 07:32N 48°16' W 123°39'1212.5
2014-Sep-13 06:33N 48°23' W 123°24'1110.7
2014-Sep-13 05:33N 48°30' W 123°13'1313.2
2014-Sep-13 04:33N 48°44' W 123°10'9 9.4
2014-Sep-13 03:33N 48°53' W 123°07'1514.7
2014-Sep-13 02:33N 49°02' W 123°24'1414.1
2014-Sep-13 01:33N 49°11' W 123°41'7 6.8
2014-Sep-13 00:33N 49°09' W 123°51'0 0.1
2014-Sep-12 22:09N 49°08' W 123°51'0 0.0
2014-Sep-12 20:24N 49°08' W 123°51'0 0.0
2014-Sep-12 17:24N 49°08' W 123°51'0 0.0
2014-Sep-12 16:15N 49°08' W 123°51'0 0.0
2014-Sep-12 13:33N 49°08' W 123°51'0 0.0
2014-Sep-12 12:33N 49°08' W 123°51'0 0.0
2014-Sep-12 11:27N 49°08' W 123°51'0 0.0
2014-Sep-12 09:33N 49°08' W 123°51'0 0.0
2014-Sep-12 08:27N 49°08' W 123°51'0 0.0
2014-Sep-12 07:33N 49°08' W 123°51'0 0.0
2014-Sep-12 06:33N 49°08' W 123°51'0 0.0
2014-Sep-12 05:27N 49°08' W 123°51'0 0.0
2014-Sep-12 04:27N 49°08' W 123°51'0 0.0
2014-Sep-11 13:27N 49°08' W 123°51'0 0.0
2014-Sep-11 12:33N 49°08' W 123°51'0 0.0
2014-Sep-11 11:33N 49°08' W 123°51'0 0.0
2014-Sep-11 10:18N 49°08' W 123°51'0 0.0
2014-Sep-11 09:27N 49°08' W 123°51'0 0.0
2014-Sep-11 06:33N 49°08' W 123°51'0 0.0
2014-Sep-11 03:21N 49°08' W 123°51'0 0.0
2014-Sep-11 02:33N 49°08' W 123°51'0 0.0
2014-Sep-11 01:27N 49°08' W 123°51'0 0.0
2014-Sep-10 15:15N 49°08' W 123°51'0 0.0
2014-Sep-10 14:27N 49°08' W 123°51'0 0.0
2014-Sep-10 13:33N 49°08' W 123°51'0 0.0
2014-Sep-10 12:27N 49°08' W 123°51'0 0.0
2014-Sep-10 01:27N 49°08' W 123°51'0 0.0
2014-Sep-09 11:33N 49°08' W 123°51'0 0.0
2014-Sep-09 10:09N 49°08' W 123°51'0 0.0
2014-Sep-09 08:15N 49°08' W 123°51'0 0.7
2014-Sep-09 07:33N 49°09' W 123°51'6 6.2
2014-Sep-09 06:33N 49°13' W 123°45'1413.9
2014-Sep-09 05:33N 49°06' W 123°26'1414.0
2014-Sep-09 04:33N 48°57' W 123°10'1212.3
2014-Sep-09 03:33N 48°47' W 123°00'1211.9
2014-Sep-09 02:33N 48°40' W 123°15'1414.2
2014-Sep-09 01:34N 48°26' W 123°10'1010.4
2014-Sep-09 00:33N 48°20' W 123°24'7 7.5
2014-Sep-08 23:33N 48°14' W 123°30'1413.8
2014-Sep-08 22:32N 48°13' W 123°51'1414.5
2014-Sep-08 21:33N 48°18' W 124°11'1514.5
2014-Sep-08 20:33N 48°25' W 124°31'1414.1
2014-Sep-08 19:33N 48°29' W 124°52'1413.7
2014-Sep-08 18:33N 48°29' W 125°12'1312.9
2014-Sep-08 17:33N 48°28' W 125°32'1312.8
2014-Sep-08 16:32N 48°27' W 125°52'1313.4
2014-Sep-08 15:33N 48°29' W 126°11'  

Dump ship's entire track history